Main page
METAR-TAF:

METAR-TAF

Airports :

Fairbanks International Airport

Fairbanks, Alaska, United States

latitude: 64-48-14N, longitude: 147-52-34W, elevation: 132 m

Current weather observation

The report was made 54 minutes ago, at 10:53 UTC
Wind 4 kt from the Northeast
Temperature 12°C
Humidity 82%
Pressure 1012 hPa
Visibility: 16.1 km
Few clouds at a height of 5000 ft
Few clouds at a height of 9500 ft

METAR: PAFA 141053Z 04004KT 10SM FEW050 FEW095 12/09 A2988 RMK AO2 SLP120 T01170089 $

Time: 03:47 (11:47 UTC)

Forecast

The report was made 21 minutes ago, at 11:26 UTC
Forecast valid from 14 at 12 UTC to 15 at 18 UTC
Wind 5 kt from variable directions
Visibility: 10 km
Few clouds at a height of 5000 ft
Few clouds at a height of 10000 ft

TAF: PAFA 141126Z 1412/1518 VRB05KT P6SM FEW050 FEW100

Weather observations and forecasts of more than 4000 airports (METAR and TAF reports).

The available stations are represented by yellow and red dots on the map.

Hover mouse over dot to see the name of the station.

Then click to see weather observations and forecasts.

To change the map : click on the green buttons with a black cross to zoom in, on the green button with a dash to zoom out, or on the green arrows for adjacent maps.


METAR-TAF: